sensor_id;sensor_type;location;lat;lon;timestamp;P1;durP1;ratioP1;P2;durP2;ratioP2
77076;SDS011;66003;52.286;104.306;2023-09-18T00:01:01;6.32;;;3.13;;
77076;SDS011;66003;52.286;104.306;2023-09-18T00:03:28;8.30;;;5.15;;
77076;SDS011;66003;52.286;104.306;2023-09-18T00:08:20;7.72;;;3.28;;
77076;SDS011;66003;52.286;104.306;2023-09-18T00:10:54;12.80;;;5.35;;
77076;SDS011;66003;52.286;104.306;2023-09-18T00:13:21;14.13;;;5.18;;
77076;SDS011;66003;52.286;104.306;2023-09-18T00:15:47;16.33;;;7.18;;
77076;SDS011;66003;52.286;104.306;2023-09-18T00:18:15;12.98;;;4.75;;
77076;SDS011;66003;52.286;104.306;2023-09-18T00:20:42;8.98;;;4.57;;
77076;SDS011;66003;52.286;104.306;2023-09-18T00:23:09;10.65;;;4.40;;
77076;SDS011;66003;52.286;104.306;2023-09-18T00:25:36;9.05;;;4.90;;
77076;SDS011;66003;52.286;104.306;2023-09-18T00:28:03;5.70;;;3.67;;
77076;SDS011;66003;52.286;104.306;2023-09-18T00:30:30;8.00;;;4.32;;
77076;SDS011;66003;52.286;104.306;2023-09-18T00:32:58;9.00;;;6.38;;
77076;SDS011;66003;52.286;104.306;2023-09-18T00:35:25;7.18;;;4.65;;
77076;SDS011;66003;52.286;104.306;2023-09-18T00:37:51;8.82;;;4.70;;
77076;SDS011;66003;52.286;104.306;2023-09-18T00:40:18;8.45;;;3.30;;
77076;SDS011;66003;52.286;104.306;2023-09-18T00:42:45;10.40;;;4.18;;
77076;SDS011;66003;52.286;104.306;2023-09-18T00:45:11;9.30;;;4.55;;
77076;SDS011;66003;52.286;104.306;2023-09-18T00:47:38;10.60;;;3.88;;
77076;SDS011;66003;52.286;104.306;2023-09-18T00:50:05;8.70;;;4.57;;
77076;SDS011;66003;52.286;104.306;2023-09-18T00:52:35;11.82;;;4.88;;
77076;SDS011;66003;52.286;104.306;2023-09-18T00:55:01;10.32;;;4.80;;
77076;SDS011;66003;52.286;104.306;2023-09-18T00:57:31;6.70;;;5.20;;
77076;SDS011;66003;52.286;104.306;2023-09-18T00:59:57;11.30;;;5.38;;
77076;SDS011;66003;52.286;104.306;2023-09-18T01:02:24;9.73;;;5.75;;
77076;SDS011;66003;52.286;104.306;2023-09-18T01:04:50;8.77;;;3.95;;
77076;SDS011;66003;52.286;104.306;2023-09-18T01:07:16;20.70;;;6.57;;
77076;SDS011;66003;52.286;104.306;2023-09-18T01:09:43;6.35;;;3.88;;
77076;SDS011;66003;52.286;104.306;2023-09-18T01:14:50;9.93;;;5.20;;
77076;SDS011;66003;52.286;104.306;2023-09-18T01:17:21;12.35;;;5.75;;
77076;SDS011;66003;52.286;104.306;2023-09-18T01:19:48;8.88;;;5.53;;
77076;SDS011;66003;52.286;104.306;2023-09-18T01:22:14;12.82;;;5.38;;
77076;SDS011;66003;52.286;104.306;2023-09-18T01:24:43;12.93;;;6.05;;
77076;SDS011;66003;52.286;104.306;2023-09-18T01:27:11;16.50;;;5.63;;
77076;SDS011;66003;52.286;104.306;2023-09-18T01:29:40;10.68;;;5.65;;
77076;SDS011;66003;52.286;104.306;2023-09-18T01:32:06;9.02;;;5.03;;
77076;SDS011;66003;52.286;104.306;2023-09-18T01:34:33;9.40;;;4.13;;
77076;SDS011;66003;52.286;104.306;2023-09-18T01:37:03;7.55;;;4.03;;
77076;SDS011;66003;52.286;104.306;2023-09-18T01:39:31;8.52;;;2.83;;
77076;SDS011;66003;52.286;104.306;2023-09-18T01:41:59;8.77;;;3.65;;
77076;SDS011;66003;52.286;104.306;2023-09-18T01:44:28;8.07;;;3.20;;
77076;SDS011;66003;52.286;104.306;2023-09-18T01:46:56;7.55;;;3.80;;
77076;SDS011;66003;52.286;104.306;2023-09-18T01:49:37;7.18;;;3.50;;
77076;SDS011;66003;52.286;104.306;2023-09-18T01:52:05;5.07;;;2.67;;
77076;SDS011;66003;52.286;104.306;2023-09-18T01:54:32;6.63;;;3.17;;
77076;SDS011;66003;52.286;104.306;2023-09-18T01:57:00;15.02;;;4.65;;
77076;SDS011;66003;52.286;104.306;2023-09-18T01:59:27;21.67;;;6.28;;
77076;SDS011;66003;52.286;104.306;2023-09-18T02:01:53;15.35;;;5.88;;
77076;SDS011;66003;52.286;104.306;2023-09-18T02:04:20;10.35;;;3.85;;
77076;SDS011;66003;52.286;104.306;2023-09-18T02:06:47;11.23;;;4.57;;
77076;SDS011;66003;52.286;104.306;2023-09-18T02:09:16;13.02;;;4.28;;
77076;SDS011;66003;52.286;104.306;2023-09-18T02:11:43;11.35;;;3.63;;
77076;SDS011;66003;52.286;104.306;2023-09-18T02:14:15;7.45;;;1.92;;
77076;SDS011;66003;52.286;104.306;2023-09-18T02:16:42;6.13;;;3.22;;
77076;SDS011;66003;52.286;104.306;2023-09-18T02:19:10;8.48;;;2.95;;
77076;SDS011;66003;52.286;104.306;2023-09-18T02:21:37;5.80;;;3.20;;
77076;SDS011;66003;52.286;104.306;2023-09-18T02:24:04;9.73;;;3.70;;
77076;SDS011;66003;52.286;104.306;2023-09-18T02:26:30;10.35;;;3.50;;
77076;SDS011;66003;52.286;104.306;2023-09-18T02:28:58;12.63;;;3.80;;
77076;SDS011;66003;52.286;104.306;2023-09-18T02:31:25;8.55;;;3.88;;
77076;SDS011;66003;52.286;104.306;2023-09-18T02:33:52;9.95;;;2.97;;
77076;SDS011;66003;52.286;104.306;2023-09-18T02:36:18;7.18;;;3.28;;
77076;SDS011;66003;52.286;104.306;2023-09-18T02:38:44;9.40;;;3.78;;
77076;SDS011;66003;52.286;104.306;2023-09-18T02:41:10;10.50;;;3.28;;
77076;SDS011;66003;52.286;104.306;2023-09-18T02:43:36;11.98;;;2.75;;
77076;SDS011;66003;52.286;104.306;2023-09-18T02:46:04;7.65;;;3.78;;
77076;SDS011;66003;52.286;104.306;2023-09-18T02:48:33;13.20;;;3.70;;
77076;SDS011;66003;52.286;104.306;2023-09-18T02:51:02;12.05;;;3.22;;
77076;SDS011;66003;52.286;104.306;2023-09-18T02:53:29;7.30;;;2.50;;
77076;SDS011;66003;52.286;104.306;2023-09-18T02:55:56;9.07;;;3.53;;
77076;SDS011;66003;52.286;104.306;2023-09-18T02:58:25;10.77;;;3.83;;
77076;SDS011;66003;52.286;104.306;2023-09-18T03:00:54;10.32;;;2.60;;
77076;SDS011;66003;52.286;104.306;2023-09-18T03:03:25;9.32;;;4.25;;
77076;SDS011;66003;52.286;104.306;2023-09-18T03:05:52;9.43;;;4.10;;
77076;SDS011;66003;52.286;104.306;2023-09-18T03:08:18;7.95;;;4.13;;
77076;SDS011;66003;52.286;104.306;2023-09-18T03:10:44;9.50;;;4.07;;
77076;SDS011;66003;52.286;104.306;2023-09-18T03:13:13;7.40;;;4.53;;
77076;SDS011;66003;52.286;104.306;2023-09-18T03:15:44;9.57;;;4.45;;
77076;SDS011;66003;52.286;104.306;2023-09-18T03:18:11;16.35;;;5.57;;
77076;SDS011;66003;52.286;104.306;2023-09-18T03:20:37;17.50;;;7.32;;
77076;SDS011;66003;52.286;104.306;2023-09-18T03:23:04;13.85;;;4.45;;
77076;SDS011;66003;52.286;104.306;2023-09-18T03:25:30;8.93;;;2.85;;
77076;SDS011;66003;52.286;104.306;2023-09-18T03:27:57;9.48;;;4.32;;
77076;SDS011;66003;52.286;104.306;2023-09-18T03:30:24;9.43;;;3.90;;
77076;SDS011;66003;52.286;104.306;2023-09-18T03:32:51;7.45;;;3.50;;
77076;SDS011;66003;52.286;104.306;2023-09-18T03:35:18;10.48;;;3.75;;
77076;SDS011;66003;52.286;104.306;2023-09-18T03:37:45;7.30;;;3.50;;
77076;SDS011;66003;52.286;104.306;2023-09-18T03:40:12;8.82;;;3.13;;
77076;SDS011;66003;52.286;104.306;2023-09-18T03:42:38;7.63;;;3.40;;
77076;SDS011;66003;52.286;104.306;2023-09-18T03:45:05;6.10;;;2.33;;
77076;SDS011;66003;52.286;104.306;2023-09-18T03:47:36;7.57;;;3.17;;
77076;SDS011;66003;52.286;104.306;2023-09-18T03:50:07;5.05;;;2.97;;
77076;SDS011;66003;52.286;104.306;2023-09-18T03:52:37;5.25;;;2.05;;
77076;SDS011;66003;52.286;104.306;2023-09-18T03:55:08;5.75;;;2.63;;
77076;SDS011;66003;52.286;104.306;2023-09-18T03:57:35;4.88;;;1.85;;
77076;SDS011;66003;52.286;104.306;2023-09-18T04:00:03;6.13;;;2.63;;
77076;SDS011;66003;52.286;104.306;2023-09-18T04:02:32;5.20;;;2.80;;
77076;SDS011;66003;52.286;104.306;2023-09-18T04:04:58;4.40;;;2.22;;
77076;SDS011;66003;52.286;104.306;2023-09-18T04:07:25;3.03;;;1.70;;
77076;SDS011;66003;52.286;104.306;2023-09-18T04:09:51;4.15;;;2.15;;
77076;SDS011;66003;52.286;104.306;2023-09-18T04:12:17;3.17;;;1.92;;
77076;SDS011;66003;52.286;104.306;2023-09-18T04:14:43;4.30;;;2.55;;
77076;SDS011;66003;52.286;104.306;2023-09-18T04:17:10;2.33;;;0.90;;
77076;SDS011;66003;52.286;104.306;2023-09-18T04:19:37;5.15;;;2.45;;
77076;SDS011;66003;52.286;104.306;2023-09-18T04:22:03;6.32;;;2.33;;
77076;SDS011;66003;52.286;104.306;2023-09-18T04:24:30;3.75;;;2.90;;
77076;SDS011;66003;52.286;104.306;2023-09-18T04:26:56;3.83;;;2.42;;
77076;SDS011;66003;52.286;104.306;2023-09-18T04:29:22;4.25;;;3.00;;
77076;SDS011;66003;52.286;104.306;2023-09-18T04:31:48;8.68;;;2.25;;
77076;SDS011;66003;52.286;104.306;2023-09-18T04:34:14;7.65;;;3.05;;
77076;SDS011;66003;52.286;104.306;2023-09-18T04:36:41;6.65;;;2.10;;
77076;SDS011;66003;52.286;104.306;2023-09-18T04:39:09;3.67;;;2.10;;
77076;SDS011;66003;52.286;104.306;2023-09-18T04:41:35;5.15;;;1.67;;
77076;SDS011;66003;52.286;104.306;2023-09-18T04:44:01;4.38;;;1.90;;
77076;SDS011;66003;52.286;104.306;2023-09-18T04:46:28;2.92;;;1.67;;
77076;SDS011;66003;52.286;104.306;2023-09-18T04:48:55;1.90;;;1.60;;
77076;SDS011;66003;52.286;104.306;2023-09-18T04:51:21;4.88;;;3.80;;
77076;SDS011;66003;52.286;104.306;2023-09-18T04:53:47;9.23;;;4.70;;
77076;SDS011;66003;52.286;104.306;2023-09-18T04:56:13;4.63;;;2.42;;
77076;SDS011;66003;52.286;104.306;2023-09-18T04:58:40;5.60;;;1.98;;
77076;SDS011;66003;52.286;104.306;2023-09-18T05:01:06;11.13;;;4.35;;
77076;SDS011;66003;52.286;104.306;2023-09-18T05:03:35;3.88;;;1.25;;
77076;SDS011;66003;52.286;104.306;2023-09-18T05:06:01;6.57;;;3.45;;
77076;SDS011;66003;52.286;104.306;2023-09-18T05:08:31;4.25;;;2.20;;
77076;SDS011;66003;52.286;104.306;2023-09-18T05:10:57;4.93;;;1.90;;
77076;SDS011;66003;52.286;104.306;2023-09-18T05:13:24;3.33;;;2.38;;
77076;SDS011;66003;52.286;104.306;2023-09-18T05:15:50;2.33;;;1.75;;
77076;SDS011;66003;52.286;104.306;2023-09-18T05:18:16;4.78;;;2.00;;
77076;SDS011;66003;52.286;104.306;2023-09-18T05:20:43;2.85;;;2.03;;
77076;SDS011;66003;52.286;104.306;2023-09-18T05:23:09;4.65;;;0.98;;
77076;SDS011;66003;52.286;104.306;2023-09-18T05:25:35;5.80;;;3.63;;
77076;SDS011;66003;52.286;104.306;2023-09-18T05:28:04;6.25;;;2.33;;
77076;SDS011;66003;52.286;104.306;2023-09-18T05:30:32;3.90;;;2.25;;
77076;SDS011;66003;52.286;104.306;2023-09-18T05:33:01;2.70;;;0.85;;
77076;SDS011;66003;52.286;104.306;2023-09-18T05:35:36;3.80;;;2.08;;
77076;SDS011;66003;52.286;104.306;2023-09-18T05:38:07;3.22;;;2.33;;
77076;SDS011;66003;52.286;104.306;2023-09-18T05:40:34;2.58;;;2.20;;
77076;SDS011;66003;52.286;104.306;2023-09-18T05:43:00;3.70;;;1.70;;
77076;SDS011;66003;52.286;104.306;2023-09-18T05:45:26;2.88;;;2.15;;
77076;SDS011;66003;52.286;104.306;2023-09-18T05:47:53;3.92;;;2.28;;
77076;SDS011;66003;52.286;104.306;2023-09-18T05:50:27;3.47;;;2.28;;
77076;SDS011;66003;52.286;104.306;2023-09-18T05:52:56;3.85;;;1.95;;
77076;SDS011;66003;52.286;104.306;2023-09-18T05:55:29;5.00;;;2.67;;
77076;SDS011;66003;52.286;104.306;2023-09-18T05:57:56;3.75;;;2.58;;
77076;SDS011;66003;52.286;104.306;2023-09-18T06:00:23;4.97;;;3.00;;
77076;SDS011;66003;52.286;104.306;2023-09-18T06:02:50;5.45;;;2.42;;
77076;SDS011;66003;52.286;104.306;2023-09-18T06:05:19;3.75;;;1.25;;
77076;SDS011;66003;52.286;104.306;2023-09-18T06:07:48;4.15;;;3.30;;
77076;SDS011;66003;52.286;104.306;2023-09-18T06:10:15;3.20;;;2.35;;
77076;SDS011;66003;52.286;104.306;2023-09-18T06:12:44;3.72;;;1.02;;
77076;SDS011;66003;52.286;104.306;2023-09-18T06:15:11;3.15;;;2.60;;
77076;SDS011;66003;52.286;104.306;2023-09-18T06:17:39;3.60;;;2.83;;
77076;SDS011;66003;52.286;104.306;2023-09-18T06:20:07;3.75;;;1.75;;
77076;SDS011;66003;52.286;104.306;2023-09-18T06:22:41;3.35;;;2.65;;
77076;SDS011;66003;52.286;104.306;2023-09-18T06:25:08;5.68;;;3.20;;
77076;SDS011;66003;52.286;104.306;2023-09-18T06:27:36;4.07;;;2.45;;
77076;SDS011;66003;52.286;104.306;2023-09-18T06:30:06;3.03;;;2.38;;
77076;SDS011;66003;52.286;104.306;2023-09-18T06:32:33;2.80;;;2.33;;
77076;SDS011;66003;52.286;104.306;2023-09-18T06:35:00;3.65;;;1.92;;
77076;SDS011;66003;52.286;104.306;2023-09-18T06:37:30;2.78;;;2.05;;
77076;SDS011;66003;52.286;104.306;2023-09-18T06:42:22;3.55;;;2.08;;
77076;SDS011;66003;52.286;104.306;2023-09-18T06:47:14;3.30;;;2.08;;
77076;SDS011;66003;52.286;104.306;2023-09-18T06:49:41;6.80;;;2.60;;
77076;SDS011;66003;52.286;104.306;2023-09-18T06:52:08;3.28;;;2.97;;
77076;SDS011;66003;52.286;104.306;2023-09-18T06:54:35;3.83;;;2.60;;
77076;SDS011;66003;52.286;104.306;2023-09-18T06:57:02;4.57;;;3.17;;
77076;SDS011;66003;52.286;104.306;2023-09-18T06:59:28;3.42;;;0.93;;
77076;SDS011;66003;52.286;104.306;2023-09-18T07:01:55;4.00;;;2.42;;
77076;SDS011;66003;52.286;104.306;2023-09-18T07:04:21;3.70;;;2.78;;
77076;SDS011;66003;52.286;104.306;2023-09-18T07:06:47;3.85;;;3.33;;
77076;SDS011;66003;52.286;104.306;2023-09-18T07:09:14;3.58;;;2.78;;
77076;SDS011;66003;52.286;104.306;2023-09-18T07:14:06;4.55;;;2.40;;
77076;SDS011;66003;52.286;104.306;2023-09-18T07:16:33;5.05;;;2.60;;
77076;SDS011;66003;52.286;104.306;2023-09-18T07:18:59;4.68;;;2.90;;
77076;SDS011;66003;52.286;104.306;2023-09-18T07:21:27;4.88;;;2.67;;
77076;SDS011;66003;52.286;104.306;2023-09-18T07:23:54;3.65;;;2.45;;
77076;SDS011;66003;52.286;104.306;2023-09-18T07:26:21;4.03;;;3.10;;
77076;SDS011;66003;52.286;104.306;2023-09-18T07:28:47;4.63;;;3.08;;
77076;SDS011;66003;52.286;104.306;2023-09-18T07:31:13;9.50;;;3.70;;
77076;SDS011;66003;52.286;104.306;2023-09-18T07:33:40;5.32;;;3.25;;
77076;SDS011;66003;52.286;104.306;2023-09-18T07:36:07;5.80;;;2.78;;
77076;SDS011;66003;52.286;104.306;2023-09-18T07:38:35;2.80;;;2.47;;
77076;SDS011;66003;52.286;104.306;2023-09-18T07:41:05;4.25;;;2.80;;
77076;SDS011;66003;52.286;104.306;2023-09-18T07:43:31;5.53;;;3.15;;
77076;SDS011;66003;52.286;104.306;2023-09-18T07:45:58;5.43;;;3.03;;
77076;SDS011;66003;52.286;104.306;2023-09-18T07:48:25;7.13;;;3.55;;
77076;SDS011;66003;52.286;104.306;2023-09-18T07:50:51;6.05;;;3.38;;
77076;SDS011;66003;52.286;104.306;2023-09-18T07:53:17;4.15;;;2.78;;
77076;SDS011;66003;52.286;104.306;2023-09-18T07:55:43;8.27;;;3.20;;
77076;SDS011;66003;52.286;104.306;2023-09-18T07:58:09;4.90;;;1.77;;
77076;SDS011;66003;52.286;104.306;2023-09-18T08:00:37;4.15;;;2.83;;
77076;SDS011;66003;52.286;104.306;2023-09-18T08:03:03;6.40;;;3.30;;
77076;SDS011;66003;52.286;104.306;2023-09-18T08:05:29;5.78;;;3.13;;
77076;SDS011;66003;52.286;104.306;2023-09-18T08:07:57;4.07;;;2.45;;
77076;SDS011;66003;52.286;104.306;2023-09-18T08:10:25;4.65;;;2.40;;
77076;SDS011;66003;52.286;104.306;2023-09-18T08:12:51;5.70;;;3.20;;
77076;SDS011;66003;52.286;104.306;2023-09-18T08:15:21;4.35;;;2.40;;
77076;SDS011;66003;52.286;104.306;2023-09-18T08:17:47;3.40;;;2.38;;
77076;SDS011;66003;52.286;104.306;2023-09-18T08:20:15;3.80;;;1.83;;
77076;SDS011;66003;52.286;104.306;2023-09-18T08:22:42;6.68;;;2.72;;
77076;SDS011;66003;52.286;104.306;2023-09-18T08:25:09;4.07;;;1.30;;
77076;SDS011;66003;52.286;104.306;2023-09-18T08:27:37;3.50;;;2.03;;
77076;SDS011;66003;52.286;104.306;2023-09-18T08:30:07;4.05;;;2.22;;
77076;SDS011;66003;52.286;104.306;2023-09-18T08:32:36;4.85;;;2.95;;
77076;SDS011;66003;52.286;104.306;2023-09-18T08:35:03;4.47;;;3.17;;
77076;SDS011;66003;52.286;104.306;2023-09-18T08:37:31;4.80;;;3.20;;
77076;SDS011;66003;52.286;104.306;2023-09-18T08:39:57;7.18;;;2.85;;
77076;SDS011;66003;52.286;104.306;2023-09-18T08:42:27;4.07;;;3.67;;
77076;SDS011;66003;52.286;104.306;2023-09-18T08:44:56;3.97;;;3.30;;
77076;SDS011;66003;52.286;104.306;2023-09-18T08:47:25;7.97;;;3.25;;
77076;SDS011;66003;52.286;104.306;2023-09-18T08:49:52;4.18;;;2.78;;
77076;SDS011;66003;52.286;104.306;2023-09-18T08:52:21;7.50;;;2.90;;
77076;SDS011;66003;52.286;104.306;2023-09-18T08:54:48;3.17;;;2.45;;
77076;SDS011;66003;52.286;104.306;2023-09-18T08:57:16;4.13;;;1.95;;
77076;SDS011;66003;52.286;104.306;2023-09-18T08:59:42;5.00;;;1.40;;
77076;SDS011;66003;52.286;104.306;2023-09-18T09:02:10;4.68;;;1.58;;
77076;SDS011;66003;52.286;104.306;2023-09-18T09:04:38;5.85;;;3.42;;
77076;SDS011;66003;52.286;104.306;2023-09-18T09:07:04;5.90;;;3.30;;
77076;SDS011;66003;52.286;104.306;2023-09-18T09:09:30;7.53;;;3.53;;
77076;SDS011;66003;52.286;104.306;2023-09-18T09:11:57;8.45;;;3.50;;
77076;SDS011;66003;52.286;104.306;2023-09-18T09:14:23;9.63;;;3.53;;
77076;SDS011;66003;52.286;104.306;2023-09-18T09:16:58;5.95;;;2.83;;
77076;SDS011;66003;52.286;104.306;2023-09-18T09:19:28;5.20;;;3.05;;
77076;SDS011;66003;52.286;104.306;2023-09-18T09:21:55;5.80;;;3.70;;
77076;SDS011;66003;52.286;104.306;2023-09-18T09:24:42;6.35;;;3.22;;
77076;SDS011;66003;52.286;104.306;2023-09-18T09:27:09;5.32;;;1.77;;
77076;SDS011;66003;52.286;104.306;2023-09-18T09:29:36;4.90;;;2.78;;
77076;SDS011;66003;52.286;104.306;2023-09-18T09:32:13;3.50;;;2.55;;
77076;SDS011;66003;52.286;104.306;2023-09-18T09:34:41;4.35;;;2.53;;
77076;SDS011;66003;52.286;104.306;2023-09-18T09:37:08;3.78;;;2.13;;
77076;SDS011;66003;52.286;104.306;2023-09-18T09:39:35;4.78;;;2.65;;
77076;SDS011;66003;52.286;104.306;2023-09-18T09:42:17;5.70;;;1.27;;
77076;SDS011;66003;52.286;104.306;2023-09-18T09:45:03;3.83;;;2.53;;
77076;SDS011;66003;52.286;104.306;2023-09-18T09:47:33;9.15;;;2.53;;
77076;SDS011;66003;52.286;104.306;2023-09-18T09:50:05;5.10;;;2.60;;
77076;SDS011;66003;52.286;104.306;2023-09-18T09:52:36;4.43;;;2.40;;
77076;SDS011;66003;52.286;104.306;2023-09-18T09:55:17;5.38;;;2.10;;
77076;SDS011;66003;52.286;104.306;2023-09-18T09:57:49;4.88;;;2.25;;
77076;SDS011;66003;52.286;104.306;2023-09-18T10:00:17;5.65;;;3.08;;
77076;SDS011;66003;52.286;104.306;2023-09-18T10:02:56;5.13;;;1.30;;
77076;SDS011;66003;52.286;104.306;2023-09-18T10:05:26;6.15;;;3.67;;
77076;SDS011;66003;52.286;104.306;2023-09-18T10:07:57;2.95;;;1.05;;
77076;SDS011;66003;52.286;104.306;2023-09-18T10:10:29;3.80;;;2.80;;
77076;SDS011;66003;52.286;104.306;2023-09-18T10:13:00;5.55;;;2.63;;
77076;SDS011;66003;52.286;104.306;2023-09-18T10:15:31;4.80;;;2.25;;
77076;SDS011;66003;52.286;104.306;2023-09-18T10:18:08;6.13;;;2.42;;
77076;SDS011;66003;52.286;104.306;2023-09-18T10:20:43;6.60;;;3.67;;
77076;SDS011;66003;52.286;104.306;2023-09-18T10:26:13;5.80;;;2.30;;
77076;SDS011;66003;52.286;104.306;2023-09-18T10:28:44;7.20;;;3.13;;
77076;SDS011;66003;52.286;104.306;2023-09-18T10:31:11;5.03;;;2.83;;
77076;SDS011;66003;52.286;104.306;2023-09-18T10:33:39;6.93;;;3.25;;
77076;SDS011;66003;52.286;104.306;2023-09-18T10:36:06;7.38;;;3.35;;
77076;SDS011;66003;52.286;104.306;2023-09-18T10:38:33;4.80;;;3.25;;
77076;SDS011;66003;52.286;104.306;2023-09-18T10:41:01;4.57;;;1.77;;
77076;SDS011;66003;52.286;104.306;2023-09-18T10:43:30;4.93;;;2.97;;
77076;SDS011;66003;52.286;104.306;2023-09-18T10:45:56;8.00;;;2.20;;
77076;SDS011;66003;52.286;104.306;2023-09-18T10:48:23;6.72;;;3.65;;
77076;SDS011;66003;52.286;104.306;2023-09-18T10:50:50;6.78;;;3.13;;
77076;SDS011;66003;52.286;104.306;2023-09-18T10:53:18;7.93;;;3.30;;
77076;SDS011;66003;52.286;104.306;2023-09-18T10:55:47;8.48;;;3.83;;
77076;SDS011;66003;52.286;104.306;2023-09-18T10:58:15;9.20;;;4.10;;
77076;SDS011;66003;52.286;104.306;2023-09-18T11:00:50;11.80;;;3.88;;
77076;SDS011;66003;52.286;104.306;2023-09-18T11:03:21;8.50;;;4.60;;
77076;SDS011;66003;52.286;104.306;2023-09-18T11:05:48;9.38;;;2.30;;
77076;SDS011;66003;52.286;104.306;2023-09-18T11:10:58;10.55;;;3.60;;
77076;SDS011;66003;52.286;104.306;2023-09-18T11:13:51;8.13;;;5.47;;
77076;SDS011;66003;52.286;104.306;2023-09-18T11:18:54;9.73;;;4.22;;
77076;SDS011;66003;52.286;104.306;2023-09-18T11:21:34;18.30;;;7.57;;
77076;SDS011;66003;52.286;104.306;2023-09-18T11:24:02;15.68;;;6.57;;
77076;SDS011;66003;52.286;104.306;2023-09-18T11:26:30;15.05;;;7.78;;
77076;SDS011;66003;52.286;104.306;2023-09-18T11:29:00;19.02;;;8.57;;
77076;SDS011;66003;52.286;104.306;2023-09-18T11:34:20;25.92;;;12.35;;
77076;SDS011;66003;52.286;104.306;2023-09-18T11:36:49;36.90;;;21.08;;
77076;SDS011;66003;52.286;104.306;2023-09-18T11:39:49;40.25;;;22.02;;
77076;SDS011;66003;52.286;104.306;2023-09-18T11:42:19;32.30;;;20.10;;
77076;SDS011;66003;52.286;104.306;2023-09-18T11:44:54;26.17;;;15.75;;
77076;SDS011;66003;52.286;104.306;2023-09-18T11:47:24;24.35;;;14.27;;
77076;SDS011;66003;52.286;104.306;2023-09-18T11:49:54;26.33;;;13.35;;
77076;SDS011;66003;52.286;104.306;2023-09-18T11:52:24;27.08;;;10.82;;
77076;SDS011;66003;52.286;104.306;2023-09-18T11:54:58;23.08;;;13.25;;
77076;SDS011;66003;52.286;104.306;2023-09-18T11:57:26;29.80;;;12.65;;
77076;SDS011;66003;52.286;104.306;2023-09-18T11:59:54;24.30;;;9.88;;
77076;SDS011;66003;52.286;104.306;2023-09-18T12:02:26;28.23;;;10.95;;
77076;SDS011;66003;52.286;104.306;2023-09-18T12:05:13;25.48;;;9.95;;
77076;SDS011;66003;52.286;104.306;2023-09-18T12:07:44;17.60;;;9.45;;
77076;SDS011;66003;52.286;104.306;2023-09-18T12:10:12;31.92;;;12.55;;
77076;SDS011;66003;52.286;104.306;2023-09-18T12:12:46;23.20;;;12.15;;
77076;SDS011;66003;52.286;104.306;2023-09-18T12:15:19;22.70;;;10.85;;
77076;SDS011;66003;52.286;104.306;2023-09-18T12:17:53;25.55;;;12.30;;
77076;SDS011;66003;52.286;104.306;2023-09-18T12:20:21;23.88;;;11.23;;
77076;SDS011;66003;52.286;104.306;2023-09-18T12:22:48;22.52;;;12.63;;
77076;SDS011;66003;52.286;104.306;2023-09-18T12:25:15;29.52;;;13.13;;
77076;SDS011;66003;52.286;104.306;2023-09-18T12:27:45;26.55;;;12.05;;
77076;SDS011;66003;52.286;104.306;2023-09-18T12:30:16;22.75;;;11.35;;
77076;SDS011;66003;52.286;104.306;2023-09-18T12:32:46;21.73;;;11.48;;
77076;SDS011;66003;52.286;104.306;2023-09-18T12:35:16;21.65;;;10.35;;
77076;SDS011;66003;52.286;104.306;2023-09-18T12:37:44;24.95;;;11.38;;
77076;SDS011;66003;52.286;104.306;2023-09-18T12:40:23;24.83;;;10.65;;
77076;SDS011;66003;52.286;104.306;2023-09-18T12:42:51;18.52;;;11.30;;
77076;SDS011;66003;52.286;104.306;2023-09-18T12:45:19;21.23;;;8.93;;
77076;SDS011;66003;52.286;104.306;2023-09-18T12:47:45;14.75;;;9.30;;
77076;SDS011;66003;52.286;104.306;2023-09-18T12:50:12;15.45;;;10.20;;
77076;SDS011;66003;52.286;104.306;2023-09-18T12:52:40;21.63;;;7.40;;
77076;SDS011;66003;52.286;104.306;2023-09-18T12:55:07;19.85;;;10.13;;
77076;SDS011;66003;52.286;104.306;2023-09-18T12:57:34;22.20;;;10.90;;
77076;SDS011;66003;52.286;104.306;2023-09-18T13:02:36;19.45;;;11.60;;
77076;SDS011;66003;52.286;104.306;2023-09-18T13:05:03;18.48;;;9.40;;
77076;SDS011;66003;52.286;104.306;2023-09-18T13:07:30;14.15;;;9.45;;
77076;SDS011;66003;52.286;104.306;2023-09-18T13:10:16;13.57;;;8.07;;
77076;SDS011;66003;52.286;104.306;2023-09-18T13:12:51;19.58;;;7.90;;
77076;SDS011;66003;52.286;104.306;2023-09-18T13:15:28;16.08;;;9.40;;
77076;SDS011;66003;52.286;104.306;2023-09-18T13:17:57;15.88;;;9.65;;
77076;SDS011;66003;52.286;104.306;2023-09-18T13:20:28;23.40;;;10.55;;
77076;SDS011;66003;52.286;104.306;2023-09-18T13:22:56;17.88;;;9.75;;
77076;SDS011;66003;52.286;104.306;2023-09-18T13:25:27;19.33;;;10.95;;
77076;SDS011;66003;52.286;104.306;2023-09-18T13:28:01;16.15;;;10.40;;
77076;SDS011;66003;52.286;104.306;2023-09-18T13:30:29;15.23;;;7.90;;
77076;SDS011;66003;52.286;104.306;2023-09-18T13:33:03;17.30;;;9.73;;
77076;SDS011;66003;52.286;104.306;2023-09-18T13:35:38;16.73;;;8.23;;
77076;SDS011;66003;52.286;104.306;2023-09-18T13:38:06;12.23;;;6.60;;
77076;SDS011;66003;52.286;104.306;2023-09-18T13:40:34;6.60;;;5.10;;
77076;SDS011;66003;52.286;104.306;2023-09-18T13:43:01;9.52;;;6.53;;
77076;SDS011;66003;52.286;104.306;2023-09-18T13:45:31;12.93;;;7.28;;
77076;SDS011;66003;52.286;104.306;2023-09-18T13:48:01;7.82;;;3.88;;
77076;SDS011;66003;52.286;104.306;2023-09-18T13:50:27;10.65;;;6.28;;
77076;SDS011;66003;52.286;104.306;2023-09-18T13:52:54;9.30;;;4.47;;
77076;SDS011;66003;52.286;104.306;2023-09-18T13:55:22;4.47;;;3.65;;
77076;SDS011;66003;52.286;104.306;2023-09-18T13:57:52;5.05;;;4.15;;
77076;SDS011;66003;52.286;104.306;2023-09-18T14:00:20;7.60;;;4.90;;
77076;SDS011;66003;52.286;104.306;2023-09-18T14:02:47;7.30;;;2.05;;
77076;SDS011;66003;52.286;104.306;2023-09-18T14:05:13;7.72;;;4.18;;
77076;SDS011;66003;52.286;104.306;2023-09-18T14:07:40;6.18;;;3.25;;
77076;SDS011;66003;52.286;104.306;2023-09-18T14:10:08;6.40;;;4.15;;
77076;SDS011;66003;52.286;104.306;2023-09-18T14:12:37;6.00;;;3.83;;
77076;SDS011;66003;52.286;104.306;2023-09-18T14:15:07;8.05;;;4.20;;
77076;SDS011;66003;52.286;104.306;2023-09-18T14:17:35;12.68;;;3.58;;
77076;SDS011;66003;52.286;104.306;2023-09-18T14:20:03;4.40;;;3.30;;
77076;SDS011;66003;52.286;104.306;2023-09-18T14:22:33;4.97;;;3.15;;
77076;SDS011;66003;52.286;104.306;2023-09-18T14:25:00;3.22;;;2.92;;
77076;SDS011;66003;52.286;104.306;2023-09-18T14:27:31;6.65;;;3.95;;
77076;SDS011;66003;52.286;104.306;2023-09-18T14:29:58;9.07;;;4.70;;
77076;SDS011;66003;52.286;104.306;2023-09-18T14:32:25;4.65;;;3.50;;
77076;SDS011;66003;52.286;104.306;2023-09-18T14:37:17;4.43;;;3.35;;
77076;SDS011;66003;52.286;104.306;2023-09-18T14:39:43;2.42;;;2.22;;
77076;SDS011;66003;52.286;104.306;2023-09-18T14:42:11;7.15;;;4.35;;
77076;SDS011;66003;52.286;104.306;2023-09-18T14:44:38;5.78;;;4.35;;
77076;SDS011;66003;52.286;104.306;2023-09-18T14:47:10;7.75;;;4.68;;
77076;SDS011;66003;52.286;104.306;2023-09-18T14:49:37;5.45;;;3.22;;
77076;SDS011;66003;52.286;104.306;2023-09-18T14:52:05;5.47;;;3.95;;